sensor_id;sensor_type;location;lat;lon;timestamp;P1;durP1;ratioP1;P2;durP2;ratioP2
46767;SDS011;69007;48.978;18.066;2023-06-22T00:01:02;8.82;;;2.70;;
46767;SDS011;69007;48.978;18.066;2023-06-22T00:03:27;8.63;;;3.25;;
46767;SDS011;69007;48.978;18.066;2023-06-22T00:05:53;10.23;;;3.00;;
46767;SDS011;69007;48.978;18.066;2023-06-22T00:08:18;9.32;;;3.38;;
46767;SDS011;69007;48.978;18.066;2023-06-22T00:10:44;6.63;;;2.83;;
46767;SDS011;69007;48.978;18.066;2023-06-22T00:13:11;9.85;;;3.45;;
46767;SDS011;69007;48.978;18.066;2023-06-22T00:15:38;5.22;;;2.97;;
46767;SDS011;69007;48.978;18.066;2023-06-22T00:18:05;11.48;;;2.83;;
46767;SDS011;69007;48.978;18.066;2023-06-22T00:20:31;6.72;;;3.30;;
46767;SDS011;69007;48.978;18.066;2023-06-22T00:22:58;9.43;;;2.90;;
46767;SDS011;69007;48.978;18.066;2023-06-22T00:25:24;14.27;;;4.07;;
46767;SDS011;69007;48.978;18.066;2023-06-22T00:27:50;8.20;;;3.35;;
46767;SDS011;69007;48.978;18.066;2023-06-22T00:30:16;10.57;;;3.75;;
46767;SDS011;69007;48.978;18.066;2023-06-22T00:32:42;8.63;;;3.25;;
46767;SDS011;69007;48.978;18.066;2023-06-22T00:35:08;13.48;;;3.92;;
46767;SDS011;69007;48.978;18.066;2023-06-22T00:37:35;10.05;;;3.75;;
46767;SDS011;69007;48.978;18.066;2023-06-22T00:40:01;9.20;;;3.78;;
46767;SDS011;69007;48.978;18.066;2023-06-22T00:42:26;8.48;;;4.07;;
46767;SDS011;69007;48.978;18.066;2023-06-22T00:44:52;12.27;;;4.13;;
46767;SDS011;69007;48.978;18.066;2023-06-22T00:47:17;12.00;;;4.20;;
46767;SDS011;69007;48.978;18.066;2023-06-22T00:49:44;11.30;;;3.97;;
46767;SDS011;69007;48.978;18.066;2023-06-22T00:52:11;10.00;;;3.83;;
46767;SDS011;69007;48.978;18.066;2023-06-22T00:54:42;9.60;;;3.50;;
46767;SDS011;69007;48.978;18.066;2023-06-22T00:57:14;8.25;;;3.15;;
46767;SDS011;69007;48.978;18.066;2023-06-22T00:59:43;9.27;;;3.80;;
46767;SDS011;69007;48.978;18.066;2023-06-22T01:02:10;12.65;;;3.78;;
46767;SDS011;69007;48.978;18.066;2023-06-22T01:04:36;8.65;;;3.50;;
46767;SDS011;69007;48.978;18.066;2023-06-22T01:09:57;10.77;;;4.28;;
46767;SDS011;69007;48.978;18.066;2023-06-22T01:12:29;11.80;;;4.57;;
46767;SDS011;69007;48.978;18.066;2023-06-22T01:15:09;9.60;;;3.60;;
46767;SDS011;69007;48.978;18.066;2023-06-22T01:17:39;6.15;;;3.40;;
46767;SDS011;69007;48.978;18.066;2023-06-22T01:20:06;8.45;;;3.45;;
46767;SDS011;69007;48.978;18.066;2023-06-22T01:25:28;7.03;;;3.55;;
46767;SDS011;69007;48.978;18.066;2023-06-22T01:29:10;7.30;;;4.00;;
46767;SDS011;69007;48.978;18.066;2023-06-22T01:31:06;8.38;;;3.78;;
46767;SDS011;69007;48.978;18.066;2023-06-22T01:33:35;12.65;;;4.10;;
46767;SDS011;69007;48.978;18.066;2023-06-22T01:36:04;11.15;;;3.60;;
46767;SDS011;69007;48.978;18.066;2023-06-22T01:38:30;8.70;;;3.60;;
46767;SDS011;69007;48.978;18.066;2023-06-22T01:40:58;8.32;;;3.13;;
46767;SDS011;69007;48.978;18.066;2023-06-22T01:43:26;8.18;;;3.78;;
46767;SDS011;69007;48.978;18.066;2023-06-22T01:45:53;9.82;;;3.50;;
46767;SDS011;69007;48.978;18.066;2023-06-22T01:48:19;9.77;;;3.53;;
46767;SDS011;69007;48.978;18.066;2023-06-22T01:50:46;10.95;;;3.58;;
46767;SDS011;69007;48.978;18.066;2023-06-22T01:53:12;9.48;;;3.72;;
46767;SDS011;69007;48.978;18.066;2023-06-22T01:55:37;10.30;;;3.65;;
46767;SDS011;69007;48.978;18.066;2023-06-22T01:58:03;14.25;;;3.25;;
46767;SDS011;69007;48.978;18.066;2023-06-22T02:00:28;11.15;;;3.00;;
46767;SDS011;69007;48.978;18.066;2023-06-22T02:05:26;6.13;;;3.03;;
46767;SDS011;69007;48.978;18.066;2023-06-22T02:08:11;5.22;;;3.38;;
46767;SDS011;69007;48.978;18.066;2023-06-22T02:10:43;9.73;;;4.00;;
46767;SDS011;69007;48.978;18.066;2023-06-22T02:13:10;4.53;;;3.75;;
46767;SDS011;69007;48.978;18.066;2023-06-22T02:15:37;12.70;;;3.50;;
46767;SDS011;69007;48.978;18.066;2023-06-22T02:18:03;12.85;;;3.42;;
46767;SDS011;69007;48.978;18.066;2023-06-22T02:20:28;10.73;;;3.75;;
46767;SDS011;69007;48.978;18.066;2023-06-22T02:22:54;7.22;;;3.10;;
46767;SDS011;69007;48.978;18.066;2023-06-22T02:25:19;10.55;;;3.05;;
46767;SDS011;69007;48.978;18.066;2023-06-22T02:27:45;12.32;;;3.50;;
46767;SDS011;69007;48.978;18.066;2023-06-22T02:30:11;9.55;;;3.30;;
46767;SDS011;69007;48.978;18.066;2023-06-22T02:32:37;10.27;;;3.53;;
46767;SDS011;69007;48.978;18.066;2023-06-22T02:35:02;9.15;;;3.05;;
46767;SDS011;69007;48.978;18.066;2023-06-22T02:37:32;6.13;;;3.55;;
46767;SDS011;69007;48.978;18.066;2023-06-22T02:39:57;10.35;;;3.33;;
46767;SDS011;69007;48.978;18.066;2023-06-22T02:42:22;6.97;;;3.10;;
46767;SDS011;69007;48.978;18.066;2023-06-22T02:44:48;17.75;;;3.38;;
46767;SDS011;69007;48.978;18.066;2023-06-22T02:47:13;18.27;;;3.85;;
46767;SDS011;69007;48.978;18.066;2023-06-22T02:49:39;7.35;;;3.33;;
46767;SDS011;69007;48.978;18.066;2023-06-22T02:52:04;7.03;;;3.25;;
46767;SDS011;69007;48.978;18.066;2023-06-22T02:54:30;8.00;;;4.07;;
46767;SDS011;69007;48.978;18.066;2023-06-22T02:56:55;9.70;;;3.40;;
46767;SDS011;69007;48.978;18.066;2023-06-22T02:59:20;11.45;;;3.58;;
46767;SDS011;69007;48.978;18.066;2023-06-22T03:01:49;10.40;;;3.85;;
46767;SDS011;69007;48.978;18.066;2023-06-22T03:04:15;15.77;;;3.70;;
46767;SDS011;69007;48.978;18.066;2023-06-22T03:06:41;10.07;;;4.13;;
46767;SDS011;69007;48.978;18.066;2023-06-22T03:09:06;8.75;;;3.55;;
46767;SDS011;69007;48.978;18.066;2023-06-22T03:11:35;13.07;;;3.97;;
46767;SDS011;69007;48.978;18.066;2023-06-22T03:14:01;11.55;;;3.60;;
46767;SDS011;69007;48.978;18.066;2023-06-22T03:16:26;9.05;;;3.67;;
46767;SDS011;69007;48.978;18.066;2023-06-22T03:18:52;9.27;;;3.17;;
46767;SDS011;69007;48.978;18.066;2023-06-22T03:21:19;5.97;;;3.70;;
46767;SDS011;69007;48.978;18.066;2023-06-22T03:23:45;5.57;;;4.10;;
46767;SDS011;69007;48.978;18.066;2023-06-22T03:26:10;10.65;;;3.75;;
46767;SDS011;69007;48.978;18.066;2023-06-22T03:28:36;6.32;;;3.83;;
46767;SDS011;69007;48.978;18.066;2023-06-22T03:31:03;9.00;;;4.15;;
46767;SDS011;69007;48.978;18.066;2023-06-22T03:33:29;12.50;;;4.30;;
46767;SDS011;69007;48.978;18.066;2023-06-22T03:35:54;13.70;;;3.92;;
46767;SDS011;69007;48.978;18.066;2023-06-22T03:38:20;13.18;;;3.50;;
46767;SDS011;69007;48.978;18.066;2023-06-22T03:40:45;12.75;;;3.45;;
46767;SDS011;69007;48.978;18.066;2023-06-22T03:43:11;7.82;;;3.65;;
46767;SDS011;69007;48.978;18.066;2023-06-22T03:45:36;14.60;;;3.78;;
46767;SDS011;69007;48.978;18.066;2023-06-22T03:48:02;8.10;;;3.60;;
46767;SDS011;69007;48.978;18.066;2023-06-22T03:50:27;3.63;;;3.03;;
46767;SDS011;69007;48.978;18.066;2023-06-22T03:52:53;7.55;;;3.42;;
46767;SDS011;69007;48.978;18.066;2023-06-22T03:55:22;8.82;;;3.97;;
46767;SDS011;69007;48.978;18.066;2023-06-22T03:57:47;6.20;;;3.30;;
46767;SDS011;69007;48.978;18.066;2023-06-22T04:00:13;10.95;;;4.93;;
46767;SDS011;69007;48.978;18.066;2023-06-22T04:02:40;9.20;;;4.22;;
46767;SDS011;69007;48.978;18.066;2023-06-22T04:05:07;18.02;;;6.57;;
46767;SDS011;69007;48.978;18.066;2023-06-22T04:07:34;13.18;;;6.95;;
46767;SDS011;69007;48.978;18.066;2023-06-22T04:10:02;12.13;;;7.18;;
46767;SDS011;69007;48.978;18.066;2023-06-22T04:12:28;14.52;;;8.35;;
46767;SDS011;69007;48.978;18.066;2023-06-22T04:14:53;16.60;;;7.63;;
46767;SDS011;69007;48.978;18.066;2023-06-22T04:17:19;18.05;;;8.32;;
46767;SDS011;69007;48.978;18.066;2023-06-22T04:19:44;20.73;;;7.78;;
46767;SDS011;69007;48.978;18.066;2023-06-22T04:22:09;11.55;;;6.47;;
46767;SDS011;69007;48.978;18.066;2023-06-22T04:24:35;11.60;;;6.18;;
46767;SDS011;69007;48.978;18.066;2023-06-22T04:27:01;9.88;;;6.10;;
46767;SDS011;69007;48.978;18.066;2023-06-22T04:29:27;23.35;;;7.78;;
46767;SDS011;69007;48.978;18.066;2023-06-22T04:31:54;72.72;;;9.60;;
46767;SDS011;69007;48.978;18.066;2023-06-22T04:34:23;17.13;;;9.57;;
46767;SDS011;69007;48.978;18.066;2023-06-22T04:36:52;20.55;;;9.32;;
46767;SDS011;69007;48.978;18.066;2023-06-22T04:39:18;36.30;;;8.82;;
46767;SDS011;69007;48.978;18.066;2023-06-22T04:41:44;20.58;;;8.85;;
46767;SDS011;69007;48.978;18.066;2023-06-22T04:44:10;43.35;;;10.02;;
46767;SDS011;69007;48.978;18.066;2023-06-22T04:46:39;25.90;;;8.40;;
46767;SDS011;69007;48.978;18.066;2023-06-22T04:49:06;18.70;;;7.50;;
46767;SDS011;69007;48.978;18.066;2023-06-22T04:51:35;17.05;;;7.97;;
46767;SDS011;69007;48.978;18.066;2023-06-22T04:54:05;102.28;;;10.50;;
46767;SDS011;69007;48.978;18.066;2023-06-22T04:56:31;25.30;;;8.30;;
46767;SDS011;69007;48.978;18.066;2023-06-22T04:58:57;34.53;;;9.18;;
46767;SDS011;69007;48.978;18.066;2023-06-22T05:01:23;43.10;;;9.52;;
46767;SDS011;69007;48.978;18.066;2023-06-22T05:03:48;37.28;;;10.00;;
46767;SDS011;69007;48.978;18.066;2023-06-22T05:06:14;27.67;;;10.48;;
46767;SDS011;69007;48.978;18.066;2023-06-22T05:08:40;29.35;;;9.50;;
46767;SDS011;69007;48.978;18.066;2023-06-22T05:11:06;65.38;;;11.30;;
46767;SDS011;69007;48.978;18.066;2023-06-22T05:13:31;24.38;;;9.43;;
46767;SDS011;69007;48.978;18.066;2023-06-22T05:15:57;39.45;;;9.73;;
46767;SDS011;69007;48.978;18.066;2023-06-22T05:18:27;25.33;;;9.20;;
46767;SDS011;69007;48.978;18.066;2023-06-22T05:20:55;33.80;;;10.23;;
46767;SDS011;69007;48.978;18.066;2023-06-22T05:23:21;12.82;;;8.55;;
46767;SDS011;69007;48.978;18.066;2023-06-22T05:25:46;20.65;;;9.18;;
46767;SDS011;69007;48.978;18.066;2023-06-22T05:28:12;39.97;;;9.65;;
46767;SDS011;69007;48.978;18.066;2023-06-22T05:30:37;29.15;;;10.32;;
46767;SDS011;69007;48.978;18.066;2023-06-22T05:33:03;22.77;;;9.60;;
46767;SDS011;69007;48.978;18.066;2023-06-22T05:35:28;35.42;;;9.30;;
46767;SDS011;69007;48.978;18.066;2023-06-22T05:37:54;18.42;;;10.02;;
46767;SDS011;69007;48.978;18.066;2023-06-22T05:40:20;17.27;;;9.20;;
46767;SDS011;69007;48.978;18.066;2023-06-22T05:42:46;29.02;;;9.55;;
46767;SDS011;69007;48.978;18.066;2023-06-22T05:45:11;57.35;;;11.45;;
46767;SDS011;69007;48.978;18.066;2023-06-22T05:47:36;89.38;;;11.73;;
46767;SDS011;69007;48.978;18.066;2023-06-22T05:50:02;56.78;;;11.75;;
46767;SDS011;69007;48.978;18.066;2023-06-22T05:52:31;76.80;;;12.45;;
46767;SDS011;69007;48.978;18.066;2023-06-22T05:54:57;33.08;;;10.57;;
46767;SDS011;69007;48.978;18.066;2023-06-22T05:57:22;49.78;;;12.23;;
46767;SDS011;69007;48.978;18.066;2023-06-22T05:59:47;30.30;;;11.30;;
46767;SDS011;69007;48.978;18.066;2023-06-22T06:02:13;21.55;;;10.23;;
46767;SDS011;69007;48.978;18.066;2023-06-22T06:04:39;18.30;;;10.27;;
46767;SDS011;69007;48.978;18.066;2023-06-22T06:07:04;15.15;;;10.20;;
46767;SDS011;69007;48.978;18.066;2023-06-22T06:09:29;16.85;;;9.13;;
46767;SDS011;69007;48.978;18.066;2023-06-22T06:11:55;17.40;;;10.30;;
46767;SDS011;69007;48.978;18.066;2023-06-22T06:14:20;17.42;;;10.65;;
46767;SDS011;69007;48.978;18.066;2023-06-22T06:16:46;19.27;;;10.57;;
46767;SDS011;69007;48.978;18.066;2023-06-22T06:19:11;19.85;;;11.38;;
46767;SDS011;69007;48.978;18.066;2023-06-22T06:21:36;20.45;;;12.45;;
46767;SDS011;69007;48.978;18.066;2023-06-22T06:24:02;28.58;;;11.77;;
46767;SDS011;69007;48.978;18.066;2023-06-22T06:26:27;26.35;;;12.52;;
46767;SDS011;69007;48.978;18.066;2023-06-22T06:28:55;19.55;;;13.23;;
46767;SDS011;69007;48.978;18.066;2023-06-22T06:31:21;15.52;;;11.00;;
46767;SDS011;69007;48.978;18.066;2023-06-22T06:33:46;21.65;;;12.05;;
46767;SDS011;69007;48.978;18.066;2023-06-22T06:36:12;27.95;;;13.25;;
46767;SDS011;69007;48.978;18.066;2023-06-22T06:38:37;28.20;;;12.02;;
46767;SDS011;69007;48.978;18.066;2023-06-22T06:41:02;41.38;;;13.05;;
46767;SDS011;69007;48.978;18.066;2023-06-22T06:43:28;21.55;;;12.30;;
46767;SDS011;69007;48.978;18.066;2023-06-22T06:45:53;21.88;;;11.90;;
46767;SDS011;69007;48.978;18.066;2023-06-22T06:48:18;19.10;;;11.85;;
46767;SDS011;69007;48.978;18.066;2023-06-22T06:50:44;15.98;;;12.15;;
46767;SDS011;69007;48.978;18.066;2023-06-22T06:53:09;19.98;;;13.38;;
46767;SDS011;69007;48.978;18.066;2023-06-22T06:55:35;25.05;;;12.27;;
46767;SDS011;69007;48.978;18.066;2023-06-22T06:58:01;23.55;;;12.75;;
46767;SDS011;69007;48.978;18.066;2023-06-22T07:00:32;19.88;;;10.93;;
46767;SDS011;69007;48.978;18.066;2023-06-22T07:02:58;15.82;;;11.60;;
46767;SDS011;69007;48.978;18.066;2023-06-22T07:05:23;20.80;;;12.20;;
46767;SDS011;69007;48.978;18.066;2023-06-22T07:07:49;20.48;;;12.27;;
46767;SDS011;69007;48.978;18.066;2023-06-22T07:10:14;19.42;;;11.90;;
46767;SDS011;69007;48.978;18.066;2023-06-22T07:12:40;20.00;;;11.90;;
46767;SDS011;69007;48.978;18.066;2023-06-22T07:15:06;26.60;;;12.02;;
46767;SDS011;69007;48.978;18.066;2023-06-22T07:17:34;21.25;;;12.80;;
46767;SDS011;69007;48.978;18.066;2023-06-22T07:20:00;14.65;;;11.73;;
46767;SDS011;69007;48.978;18.066;2023-06-22T07:22:26;19.48;;;11.25;;
46767;SDS011;69007;48.978;18.066;2023-06-22T07:24:52;16.77;;;10.07;;
46767;SDS011;69007;48.978;18.066;2023-06-22T07:27:17;18.10;;;11.15;;
46767;SDS011;69007;48.978;18.066;2023-06-22T07:29:46;18.10;;;11.82;;
46767;SDS011;69007;48.978;18.066;2023-06-22T07:32:12;18.65;;;10.75;;
46767;SDS011;69007;48.978;18.066;2023-06-22T07:34:37;14.32;;;10.60;;
46767;SDS011;69007;48.978;18.066;2023-06-22T07:37:03;19.63;;;11.35;;
46767;SDS011;69007;48.978;18.066;2023-06-22T07:39:29;12.73;;;10.85;;
46767;SDS011;69007;48.978;18.066;2023-06-22T07:41:55;16.90;;;10.60;;
46767;SDS011;69007;48.978;18.066;2023-06-22T07:44:20;14.40;;;10.82;;
46767;SDS011;69007;48.978;18.066;2023-06-22T07:46:46;13.68;;;9.50;;
46767;SDS011;69007;48.978;18.066;2023-06-22T07:49:11;13.98;;;9.13;;
46767;SDS011;69007;48.978;18.066;2023-06-22T07:51:37;17.70;;;10.75;;
46767;SDS011;69007;48.978;18.066;2023-06-22T07:54:02;12.93;;;9.23;;
46767;SDS011;69007;48.978;18.066;2023-06-22T07:56:27;13.43;;;9.07;;
46767;SDS011;69007;48.978;18.066;2023-06-22T07:58:53;14.70;;;8.73;;
46767;SDS011;69007;48.978;18.066;2023-06-22T08:01:18;24.60;;;10.00;;
46767;SDS011;69007;48.978;18.066;2023-06-22T08:03:50;18.40;;;9.50;;
46767;SDS011;69007;48.978;18.066;2023-06-22T08:06:15;14.32;;;9.30;;
46767;SDS011;69007;48.978;18.066;2023-06-22T08:08:41;17.17;;;9.13;;
46767;SDS011;69007;48.978;18.066;2023-06-22T08:11:07;13.07;;;9.05;;
46767;SDS011;69007;48.978;18.066;2023-06-22T08:13:33;10.00;;;8.90;;
46767;SDS011;69007;48.978;18.066;2023-06-22T08:15:58;12.90;;;9.63;;
46767;SDS011;69007;48.978;18.066;2023-06-22T08:18:23;12.30;;;9.60;;
46767;SDS011;69007;48.978;18.066;2023-06-22T08:20:49;14.25;;;9.27;;
46767;SDS011;69007;48.978;18.066;2023-06-22T08:23:14;15.25;;;10.20;;
46767;SDS011;69007;48.978;18.066;2023-06-22T08:25:40;12.98;;;8.93;;
46767;SDS011;69007;48.978;18.066;2023-06-22T08:28:05;9.65;;;8.55;;
46767;SDS011;69007;48.978;18.066;2023-06-22T08:30:32;16.52;;;9.45;;
46767;SDS011;69007;48.978;18.066;2023-06-22T08:32:57;18.83;;;9.02;;
46767;SDS011;69007;48.978;18.066;2023-06-22T08:35:23;10.82;;;7.75;;
46767;SDS011;69007;48.978;18.066;2023-06-22T08:37:48;11.85;;;8.43;;
46767;SDS011;69007;48.978;18.066;2023-06-22T08:40:20;10.15;;;7.68;;
46767;SDS011;69007;48.978;18.066;2023-06-22T08:42:46;16.08;;;7.75;;
46767;SDS011;69007;48.978;18.066;2023-06-22T08:45:12;14.07;;;6.68;;
46767;SDS011;69007;48.978;18.066;2023-06-22T08:47:41;13.60;;;7.00;;
46767;SDS011;69007;48.978;18.066;2023-06-22T08:50:10;13.93;;;7.57;;
46767;SDS011;69007;48.978;18.066;2023-06-22T08:52:37;16.05;;;7.97;;
46767;SDS011;69007;48.978;18.066;2023-06-22T08:55:05;8.95;;;6.55;;
46767;SDS011;69007;48.978;18.066;2023-06-22T08:57:31;10.35;;;5.90;;
46767;SDS011;69007;48.978;18.066;2023-06-22T08:59:57;17.25;;;7.80;;
46767;SDS011;69007;48.978;18.066;2023-06-22T09:02:26;7.40;;;5.05;;
46767;SDS011;69007;48.978;18.066;2023-06-22T09:04:55;6.30;;;5.47;;
46767;SDS011;69007;48.978;18.066;2023-06-22T09:07:22;11.55;;;7.05;;
46767;SDS011;69007;48.978;18.066;2023-06-22T09:09:49;10.95;;;6.75;;
46767;SDS011;69007;48.978;18.066;2023-06-22T09:12:14;15.35;;;6.25;;
46767;SDS011;69007;48.978;18.066;2023-06-22T09:14:40;13.00;;;5.43;;
46767;SDS011;69007;48.978;18.066;2023-06-22T09:17:05;5.90;;;5.10;;
46767;SDS011;69007;48.978;18.066;2023-06-22T09:19:31;11.75;;;5.05;;
46767;SDS011;69007;48.978;18.066;2023-06-22T09:21:56;5.65;;;4.97;;
46767;SDS011;69007;48.978;18.066;2023-06-22T09:24:22;11.70;;;5.85;;
46767;SDS011;69007;48.978;18.066;2023-06-22T09:26:47;10.70;;;5.80;;
46767;SDS011;69007;48.978;18.066;2023-06-22T09:29:12;14.30;;;6.40;;
46767;SDS011;69007;48.978;18.066;2023-06-22T09:31:38;10.90;;;7.70;;
46767;SDS011;69007;48.978;18.066;2023-06-22T09:34:03;9.93;;;5.50;;
46767;SDS011;69007;48.978;18.066;2023-06-22T09:36:29;19.13;;;6.32;;
46767;SDS011;69007;48.978;18.066;2023-06-22T09:38:54;12.20;;;5.80;;
46767;SDS011;69007;48.978;18.066;2023-06-22T09:41:23;13.98;;;5.82;;
46767;SDS011;69007;48.978;18.066;2023-06-22T09:43:49;13.38;;;6.25;;
46767;SDS011;69007;48.978;18.066;2023-06-22T09:46:15;12.85;;;5.68;;
46767;SDS011;69007;48.978;18.066;2023-06-22T09:48:40;14.15;;;6.60;;
46767;SDS011;69007;48.978;18.066;2023-06-22T09:51:06;9.15;;;6.30;;
46767;SDS011;69007;48.978;18.066;2023-06-22T09:53:31;7.47;;;6.03;;
46767;SDS011;69007;48.978;18.066;2023-06-22T09:55:56;11.10;;;6.10;;
46767;SDS011;69007;48.978;18.066;2023-06-22T09:58:22;8.20;;;6.50;;
46767;SDS011;69007;48.978;18.066;2023-06-22T10:00:48;10.20;;;6.07;;
46767;SDS011;69007;48.978;18.066;2023-06-22T10:03:14;9.93;;;6.38;;
46767;SDS011;69007;48.978;18.066;2023-06-22T10:05:40;15.20;;;5.72;;
46767;SDS011;69007;48.978;18.066;2023-06-22T10:08:06;8.50;;;5.65;;
46767;SDS011;69007;48.978;18.066;2023-06-22T10:10:32;10.48;;;6.13;;
46767;SDS011;69007;48.978;18.066;2023-06-22T10:13:02;13.18;;;5.70;;
46767;SDS011;69007;48.978;18.066;2023-06-22T10:15:34;6.20;;;5.32;;
46767;SDS011;69007;48.978;18.066;2023-06-22T10:17:59;9.07;;;5.53;;
46767;SDS011;69007;48.978;18.066;2023-06-22T10:20:24;7.40;;;5.72;;
46767;SDS011;69007;48.978;18.066;2023-06-22T10:22:50;12.07;;;5.70;;
46767;SDS011;69007;48.978;18.066;2023-06-22T10:25:16;12.63;;;5.22;;
46767;SDS011;69007;48.978;18.066;2023-06-22T10:27:41;9.02;;;5.78;;
46767;SDS011;69007;48.978;18.066;2023-06-22T10:30:07;8.35;;;5.60;;
46767;SDS011;69007;48.978;18.066;2023-06-22T10:32:34;11.52;;;5.70;;
46767;SDS011;69007;48.978;18.066;2023-06-22T10:34:59;9.27;;;5.30;;
46767;SDS011;69007;48.978;18.066;2023-06-22T10:37:25;9.07;;;6.47;;
46767;SDS011;69007;48.978;18.066;2023-06-22T10:39:50;9.73;;;5.82;;
46767;SDS011;69007;48.978;18.066;2023-06-22T10:42:16;6.80;;;5.82;;
46767;SDS011;69007;48.978;18.066;2023-06-22T10:44:41;6.60;;;5.90;;
46767;SDS011;69007;48.978;18.066;2023-06-22T10:47:09;8.85;;;6.13;;
46767;SDS011;69007;48.978;18.066;2023-06-22T10:49:34;9.90;;;6.38;;
46767;SDS011;69007;48.978;18.066;2023-06-22T10:52:01;10.60;;;6.43;;
46767;SDS011;69007;48.978;18.066;2023-06-22T10:54:26;7.85;;;7.00;;
46767;SDS011;69007;48.978;18.066;2023-06-22T10:56:51;9.80;;;6.80;;
46767;SDS011;69007;48.978;18.066;2023-06-22T10:59:17;8.45;;;6.75;;
46767;SDS011;69007;48.978;18.066;2023-06-22T11:01:42;9.00;;;6.68;;
46767;SDS011;69007;48.978;18.066;2023-06-22T11:04:08;10.27;;;6.97;;
46767;SDS011;69007;48.978;18.066;2023-06-22T11:06:33;8.27;;;6.70;;
46767;SDS011;69007;48.978;18.066;2023-06-22T11:08:58;9.90;;;7.63;;
46767;SDS011;69007;48.978;18.066;2023-06-22T11:11:25;11.10;;;7.00;;
46767;SDS011;69007;48.978;18.066;2023-06-22T11:13:52;12.15;;;6.75;;
46767;SDS011;69007;48.978;18.066;2023-06-22T11:16:18;12.48;;;6.40;;
46767;SDS011;69007;48.978;18.066;2023-06-22T11:18:43;11.25;;;6.80;;
46767;SDS011;69007;48.978;18.066;2023-06-22T11:21:08;9.82;;;6.35;;
46767;SDS011;69007;48.978;18.066;2023-06-22T11:23:34;10.20;;;7.03;;
46767;SDS011;69007;48.978;18.066;2023-06-22T11:25:59;11.52;;;6.88;;
46767;SDS011;69007;48.978;18.066;2023-06-22T11:28:26;11.05;;;7.40;;
46767;SDS011;69007;48.978;18.066;2023-06-22T11:30:52;14.98;;;7.22;;
46767;SDS011;69007;48.978;18.066;2023-06-22T11:33:18;12.43;;;7.15;;
46767;SDS011;69007;48.978;18.066;2023-06-22T11:35:44;10.02;;;7.47;;
46767;SDS011;69007;48.978;18.066;2023-06-22T11:38:09;10.68;;;6.47;;
46767;SDS011;69007;48.978;18.066;2023-06-22T11:40:34;8.90;;;6.90;;
46767;SDS011;69007;48.978;18.066;2023-06-22T11:43:00;8.20;;;7.00;;
46767;SDS011;69007;48.978;18.066;2023-06-22T11:45:25;8.35;;;6.65;;
46767;SDS011;69007;48.978;18.066;2023-06-22T11:47:51;8.25;;;6.22;;
46767;SDS011;69007;48.978;18.066;2023-06-22T11:50:17;7.97;;;6.72;;
46767;SDS011;69007;48.978;18.066;2023-06-22T11:52:42;8.98;;;6.88;;
46767;SDS011;69007;48.978;18.066;2023-06-22T11:55:08;7.25;;;6.50;;
46767;SDS011;69007;48.978;18.066;2023-06-22T11:57:34;8.82;;;6.78;;
46767;SDS011;69007;48.978;18.066;2023-06-22T12:00:01;8.43;;;6.20;;
46767;SDS011;69007;48.978;18.066;2023-06-22T12:02:31;7.47;;;6.47;;
46767;SDS011;69007;48.978;18.066;2023-06-22T12:04:56;6.40;;;5.80;;
46767;SDS011;69007;48.978;18.066;2023-06-22T12:07:23;9.73;;;6.10;;
46767;SDS011;69007;48.978;18.066;2023-06-22T12:09:48;7.22;;;6.25;;
46767;SDS011;69007;48.978;18.066;2023-06-22T12:12:14;11.15;;;6.38;;
46767;SDS011;69007;48.978;18.066;2023-06-22T12:14:40;7.68;;;6.40;;
46767;SDS011;69007;48.978;18.066;2023-06-22T12:17:05;7.05;;;6.28;;
46767;SDS011;69007;48.978;18.066;2023-06-22T12:19:31;8.95;;;6.90;;
46767;SDS011;69007;48.978;18.066;2023-06-22T12:21:57;12.10;;;6.55;;
46767;SDS011;69007;48.978;18.066;2023-06-22T12:24:22;9.30;;;6.57;;
46767;SDS011;69007;48.978;18.066;2023-06-22T12:26:48;7.75;;;6.95;;
46767;SDS011;69007;48.978;18.066;2023-06-22T12:29:13;8.82;;;7.20;;
46767;SDS011;69007;48.978;18.066;2023-06-22T12:31:39;10.25;;;6.88;;
46767;SDS011;69007;48.978;18.066;2023-06-22T12:34:04;9.80;;;6.55;;
46767;SDS011;69007;48.978;18.066;2023-06-22T12:36:30;8.57;;;6.13;;
46767;SDS011;69007;48.978;18.066;2023-06-22T12:38:55;8.50;;;5.47;;
46767;SDS011;69007;48.978;18.066;2023-06-22T12:41:20;13.82;;;5.47;;
46767;SDS011;69007;48.978;18.066;2023-06-22T12:43:46;7.10;;;4.93;;
46767;SDS011;69007;48.978;18.066;2023-06-22T12:46:11;7.57;;;5.40;;
46767;SDS011;69007;48.978;18.066;2023-06-22T12:48:37;9.95;;;5.93;;
46767;SDS011;69007;48.978;18.066;2023-06-22T12:51:06;9.43;;;5.45;;
46767;SDS011;69007;48.978;18.066;2023-06-22T12:53:33;6.57;;;5.75;;
46767;SDS011;69007;48.978;18.066;2023-06-22T12:55:58;9.43;;;5.18;;
46767;SDS011;69007;48.978;18.066;2023-06-22T12:58:23;7.88;;;5.38;;
46767;SDS011;69007;48.978;18.066;2023-06-22T13:00:49;7.50;;;5.53;;
46767;SDS011;69007;48.978;18.066;2023-06-22T13:03:14;10.38;;;6.03;;
46767;SDS011;69007;48.978;18.066;2023-06-22T13:05:39;7.75;;;6.28;;
46767;SDS011;69007;48.978;18.066;2023-06-22T13:08:05;6.75;;;5.75;;
46767;SDS011;69007;48.978;18.066;2023-06-22T13:10:30;10.65;;;5.82;;
46767;SDS011;69007;48.978;18.066;2023-06-22T13:12:55;10.95;;;6.13;;
46767;SDS011;69007;48.978;18.066;2023-06-22T13:15:25;9.85;;;6.03;;
46767;SDS011;69007;48.978;18.066;2023-06-22T13:17:54;8.98;;;6.57;;
46767;SDS011;69007;48.978;18.066;2023-06-22T13:20:20;7.90;;;6.30;;
46767;SDS011;69007;48.978;18.066;2023-06-22T13:22:45;9.85;;;6.32;;
46767;SDS011;69007;48.978;18.066;2023-06-22T13:25:11;8.10;;;6.22;;
46767;SDS011;69007;48.978;18.066;2023-06-22T13:27:38;10.43;;;6.47;;
46767;SDS011;69007;48.978;18.066;2023-06-22T13:30:07;10.80;;;5.80;;
46767;SDS011;69007;48.978;18.066;2023-06-22T13:32:33;14.00;;;7.60;;
46767;SDS011;69007;48.978;18.066;2023-06-22T13:34:58;10.18;;;6.25;;
46767;SDS011;69007;48.978;18.066;2023-06-22T13:37:25;8.70;;;6.07;;
46767;SDS011;69007;48.978;18.066;2023-06-22T13:39:51;8.77;;;6.10;;
46767;SDS011;69007;48.978;18.066;2023-06-22T13:42:16;8.48;;;6.40;;
46767;SDS011;69007;48.978;18.066;2023-06-22T13:44:41;10.65;;;7.65;;
46767;SDS011;69007;48.978;18.066;2023-06-22T13:47:07;15.63;;;5.93;;
46767;SDS011;69007;48.978;18.066;2023-06-22T13:49:32;10.82;;;7.40;;
46767;SDS011;69007;48.978;18.066;2023-06-22T13:51:58;9.68;;;5.70;;
46767;SDS011;69007;48.978;18.066;2023-06-22T13:54:23;9.10;;;6.10;;
46767;SDS011;69007;48.978;18.066;2023-06-22T13:56:49;12.50;;;6.30;;
46767;SDS011;69007;48.978;18.066;2023-06-22T13:59:14;9.18;;;6.43;;
46767;SDS011;69007;48.978;18.066;2023-06-22T14:01:39;9.40;;;6.22;;
46767;SDS011;69007;48.978;18.066;2023-06-22T14:04:06;13.70;;;6.90;;
46767;SDS011;69007;48.978;18.066;2023-06-22T14:06:31;7.28;;;6.18;;
46767;SDS011;69007;48.978;18.066;2023-06-22T14:08:56;8.13;;;6.22;;
46767;SDS011;69007;48.978;18.066;2023-06-22T14:11:22;21.83;;;6.95;;
46767;SDS011;69007;48.978;18.066;2023-06-22T14:13:47;12.70;;;5.72;;
46767;SDS011;69007;48.978;18.066;2023-06-22T14:16:12;8.45;;;5.63;;
46767;SDS011;69007;48.978;18.066;2023-06-22T14:18:38;6.50;;;5.85;;
46767;SDS011;69007;48.978;18.066;2023-06-22T14:21:03;6.72;;;5.45;;
46767;SDS011;69007;48.978;18.066;2023-06-22T14:23:29;6.55;;;5.22;;
46767;SDS011;69007;48.978;18.066;2023-06-22T14:25:54;8.55;;;5.80;;